Shawn Miller — WDD2268 — position and weather

sailwx.info

Track history (hours):
 
Tides and Currents Weather Stations Pressure Air Temp Water Temp Dewpoint Dewpoint Depression Visibility Wind Speed Wind Dir Waves Ship Positions

Shawn Miller

Owner: Miller's Tug & Barge, Staten Island, NY. More information available from US FCC via Universal Licensing System and Coast Guard Vessel Documentation Center.

Last reported at 2017-Sep-19 20:30 UTC. Time now 2017-Sep-19 20:40 UTC.
Position N 40°38' W 074°04'.

Length 7 m; draft 2 m.

Type: Towing. MMSI: 367113120.

Date/timePositionNaut miles runAvg speedWind from/ knotsBaromVisibWave heightAir tempDewpointWater temp
2017-Sep-19 20:30N 40°38' W 074°04'0 0.4
2017-Sep-19 20:00N 40°38' W 074°04'0 0.0
2017-Sep-19 19:27N 40°38' W 074°04'0 0.2
2017-Sep-19 19:00N 40°38' W 074°04'3 6.9
2017-Sep-19 18:30N 40°40' W 074°01'0 0.4
2017-Sep-19 18:00N 40°40' W 074°01'3 5.1
2017-Sep-19 17:30N 40°38' W 074°03'0 0.9
2017-Sep-19 17:00N 40°39' W 074°04'3 5.5
2017-Sep-19 16:30N 40°40' W 074°01'2 4.5
2017-Sep-19 16:00N 40°39' W 074°03'1 2.5
2017-Sep-19 15:30N 40°38' W 074°04'0 0.0
2017-Sep-19 15:00N 40°38' W 074°04'0 0.0
2017-Sep-19 14:29N 40°38' W 074°04'0 0.0
2017-Sep-19 14:00N 40°38' W 074°04'0 0.0
2017-Sep-19 13:30N 40°38' W 074°04'0 0.0
2017-Sep-19 13:00N 40°38' W 074°04'0 0.0
2017-Sep-19 12:30N 40°38' W 074°04'0 0.3
2017-Sep-19 12:00N 40°38' W 074°04'0 0.2
2017-Sep-19 11:30N 40°38' W 074°04'0 0.0
2017-Sep-18 23:45N 40°38' W 074°04'0 0.0
2017-Sep-18 23:30N 40°38' W 074°04'0 0.0
2017-Sep-18 23:00N 40°38' W 074°04'0 0.6
2017-Sep-18 22:30N 40°38' W 074°04'3 6.1
2017-Sep-18 22:00N 40°40' W 074°01'0 0.6
2017-Sep-18 21:30N 40°40' W 074°01'3 5.4
2017-Sep-18 21:00N 40°38' W 074°04'0 0.6
2017-Sep-18 20:29N 40°38' W 074°04'0 0.0
2017-Sep-18 19:58N 40°38' W 074°04'0 0.3
2017-Sep-18 19:30N 40°38' W 074°04'0 0.0
2017-Sep-18 18:58N 40°38' W 074°04'0 0.2
2017-Sep-18 18:29N 40°38' W 074°04'0 0.3
2017-Sep-18 18:00N 40°38' W 074°04'0 0.1
2017-Sep-18 17:30N 40°38' W 074°04'0 0.0
2017-Sep-18 17:00N 40°38' W 074°04'0 0.0
2017-Sep-18 16:30N 40°38' W 074°04'0 0.0
2017-Sep-18 16:00N 40°38' W 074°04'0 0.2
2017-Sep-18 15:27N 40°38' W 074°04'0 0.0
2017-Sep-18 14:59N 40°38' W 074°04'0 0.2
2017-Sep-18 14:30N 40°38' W 074°04'0 0.0
2017-Sep-18 13:50N 40°38' W 074°04'0 0.0
2017-Sep-18 13:25N 40°38' W 074°04'0 0.0
2017-Sep-17 15:52N 40°38' W 074°04'0 0.0
2017-Sep-17 15:30N 40°38' W 074°04'0 0.0
2017-Sep-17 15:00N 40°38' W 074°04'0 0.0
2017-Sep-17 14:30N 40°38' W 074°04'0 0.0
2017-Sep-17 14:00N 40°38' W 074°04'0 0.0
2017-Sep-17 13:30N 40°38' W 074°04'0 0.0
2017-Sep-17 13:00N 40°38' W 074°04'0 0.0
2017-Sep-17 12:30N 40°38' W 074°04'  
2017-Sep-14 19:45N 40°38' W 074°04'0 0.2
2017-Sep-14 19:30N 40°38' W 074°04'0 0.0
2017-Sep-14 19:00N 40°38' W 074°04'0 0.2
2017-Sep-14 18:30N 40°38' W 074°04'0 0.3
2017-Sep-14 17:59N 40°38' W 074°04'3 6.9
2017-Sep-14 17:30N 40°40' W 074°02'3 5.1
2017-Sep-14 17:00N 40°42' W 073°59'2 4.4
2017-Sep-14 16:30N 40°44' W 073°58'0 0.7
2017-Sep-14 16:00N 40°44' W 073°57'0 0.0
2017-Sep-14 15:29N 40°44' W 073°57'0 0.0
2017-Sep-14 15:00N 40°44' W 073°57'0 0.0
2017-Sep-14 14:30N 40°44' W 073°57'0 0.1
2017-Sep-14 13:46N 40°44' W 073°57'0 0.1
2017-Sep-14 13:30N 40°44' W 073°57'2 4.3
2017-Sep-14 13:00N 40°43' W 073°59'2 4.4
2017-Sep-14 12:30N 40°41' W 074°01'3 5.3
2017-Sep-14 12:00N 40°39' W 074°03'1 0.1
2017-Sep-13 19:08N 40°38' W 074°04'0 2.3
2017-Sep-13 19:00N 40°38' W 074°04'1 2.8
2017-Sep-13 18:30N 40°39' W 074°03'3 6.0
2017-Sep-13 18:00N 40°41' W 074°01'2 4.3
2017-Sep-13 17:30N 40°43' W 073°59'2 3.9
2017-Sep-13 16:59N 40°44' W 073°57'0 0.0
2017-Sep-13 16:29N 40°44' W 073°57'0 0.0
2017-Sep-13 15:29N 40°44' W 073°57'0 0.0
2017-Sep-13 15:00N 40°44' W 073°57'0 0.0
2017-Sep-13 14:29N 40°44' W 073°57'0 0.0
2017-Sep-13 14:00N 40°44' W 073°57'0 0.1
2017-Sep-13 13:30N 40°44' W 073°57'2 4.6
2017-Sep-13 13:00N 40°42' W 073°59'2 4.5
2017-Sep-13 12:30N 40°41' W 074°01'2 4.9
2017-Sep-13 12:00N 40°39' W 074°03'1 2.3
2017-Sep-13 11:30N 40°38' W 074°04'0 0.0
2017-Sep-12 20:37N 40°38' W 074°04'0 0.4
2017-Sep-12 20:30N 40°38' W 074°04'0 0.4
2017-Sep-12 20:00N 40°38' W 074°04'2 3.2
2017-Sep-12 19:30N 40°40' W 074°03'2 3.9
2017-Sep-12 19:00N 40°42' W 074°03'0 0.0
2017-Sep-12 18:30N 40°42' W 074°03'0 0.0
2017-Sep-12 18:00N 40°42' W 074°03'0 0.0
2017-Sep-12 17:30N 40°42' W 074°03'0 0.0
2017-Sep-12 17:00N 40°42' W 074°03'0 0.0
2017-Sep-12 16:30N 40°42' W 074°03'0 0.5
2017-Sep-12 16:00N 40°42' W 074°02'0 0.4
2017-Sep-12 15:30N 40°42' W 074°02'0 0.1
2017-Sep-12 15:00N 40°42' W 074°02'0 0.6
2017-Sep-12 14:30N 40°41' W 074°02'3 6.2
2017-Sep-12 14:00N 40°39' W 074°04'0 0.9
2017-Sep-12 13:30N 40°38' W 074°04'0 0.0
2017-Sep-12 13:00N 40°38' W 074°04'0 0.0
2017-Sep-12 12:30N 40°38' W 074°04'0 0.0
2017-Sep-12 12:00N 40°38' W 074°04'0 0.0
2017-Sep-12 11:30N 40°38' W 074°04'0 0.5
2017-Sep-12 11:00N 40°38' W 074°04'3 6.2
2017-Sep-12 10:30N 40°40' W 074°02'1 2.9
2017-Sep-12 10:00N 40°42' W 074°01'3 5.3
2017-Sep-12 09:30N 40°39' W 074°03'2 3.9
2017-Sep-12 09:00N 40°38' W 074°04'0 0.0
2017-Sep-11 20:03N 40°38' W 074°04'0 0.0
2017-Sep-11 20:00N 40°38' W 074°04'0 0.0
2017-Sep-11 19:30N 40°38' W 074°04'0 0.0
2017-Sep-11 19:01N 40°38' W 074°04'0 0.0
2017-Sep-11 18:30N 40°38' W 074°04'0 0.0
2017-Sep-11 18:00N 40°38' W 074°04'0 0.0
2017-Sep-11 17:30N 40°38' W 074°04'0 0.0
2017-Sep-11 17:01N 40°38' W 074°04'0 0.0
2017-Sep-11 16:31N 40°38' W 074°04'0 0.0
2017-Sep-11 16:01N 40°38' W 074°04'0 0.0
2017-Sep-11 15:30N 40°38' W 074°04'0 0.0
2017-Sep-11 15:00N 40°38' W 074°04'0 0.0
2017-Sep-11 14:30N 40°38' W 074°04'0 0.0
2017-Sep-11 14:00N 40°38' W 074°04'0 0.5
2017-Sep-11 13:30N 40°38' W 074°04'0 0.3
2017-Sep-11 13:00N 40°38' W 074°04'0 0.0
2017-Sep-11 12:30N 40°38' W 074°04'0 0.3
2017-Sep-11 12:00N 40°38' W 074°04'0 0.4
2017-Sep-11 11:30N 40°38' W 074°04'0 0.6
2017-Sep-11 11:01N 40°38' W 074°04'2 4.1
2017-Sep-11 10:30N 40°40' W 074°03'3 5.7
2017-Sep-11 10:01N 40°42' W 074°01'2 5.0
2017-Sep-11 09:30N 40°40' W 074°02'2 4.3
2017-Sep-11 09:00N 40°38' W 074°04'  
Track history (hours):
 
Tides and Currents Weather Stations Pressure Air Temp Water Temp Dewpoint Dewpoint Depression Visibility Wind Speed Wind Dir Waves Ship Positions

Shawn Miller

Owner: Miller's Tug & Barge, Staten Island, NY. More information available from US FCC via Universal Licensing System and Coast Guard Vessel Documentation Center.

Last reported at 2017-Sep-19 20:30 UTC. Time now 2017-Sep-19 20:40 UTC.
Position N 40°38' W 074°04'.

Length 7 m; draft 2 m.

Type: Towing. MMSI: 367113120.

Date/timePositionNaut miles runAvg speedWind from/ knotsBaromVisibWave heightAir tempDewpointWater temp
2017-Sep-19 20:30N 40°38' W 074°04'0 0.4
2017-Sep-19 20:00N 40°38' W 074°04'0 0.0
2017-Sep-19 19:27N 40°38' W 074°04'0 0.2
2017-Sep-19 19:00N 40°38' W 074°04'3 6.9
2017-Sep-19 18:30N 40°40' W 074°01'0 0.4
2017-Sep-19 18:00N 40°40' W 074°01'3 5.1
2017-Sep-19 17:30N 40°38' W 074°03'0 0.9
2017-Sep-19 17:00N 40°39' W 074°04'3 5.5
2017-Sep-19 16:30N 40°40' W 074°01'2 4.5
2017-Sep-19 16:00N 40°39' W 074°03'1 2.5
2017-Sep-19 15:30N 40°38' W 074°04'0 0.0
2017-Sep-19 15:00N 40°38' W 074°04'0 0.0
2017-Sep-19 14:29N 40°38' W 074°04'0 0.0
2017-Sep-19 14:00N 40°38' W 074°04'0 0.0
2017-Sep-19 13:30N 40°38' W 074°04'0 0.0
2017-Sep-19 13:00N 40°38' W 074°04'0 0.0
2017-Sep-19 12:30N 40°38' W 074°04'0 0.3
2017-Sep-19 12:00N 40°38' W 074°04'0 0.2
2017-Sep-19 11:30N 40°38' W 074°04'0 0.0
2017-Sep-18 23:45N 40°38' W 074°04'0 0.0
2017-Sep-18 23:30N 40°38' W 074°04'0 0.0
2017-Sep-18 23:00N 40°38' W 074°04'0 0.6
2017-Sep-18 22:30N 40°38' W 074°04'3 6.1
2017-Sep-18 22:00N 40°40' W 074°01'0 0.6
2017-Sep-18 21:30N 40°40' W 074°01'3 5.4
2017-Sep-18 21:00N 40°38' W 074°04'0 0.6
2017-Sep-18 20:29N 40°38' W 074°04'0 0.0
2017-Sep-18 19:58N 40°38' W 074°04'0 0.3
2017-Sep-18 19:30N 40°38' W 074°04'0 0.0
2017-Sep-18 18:58N 40°38' W 074°04'0 0.2
2017-Sep-18 18:29N 40°38' W 074°04'0 0.3
2017-Sep-18 18:00N 40°38' W 074°04'0 0.1
2017-Sep-18 17:30N 40°38' W 074°04'0 0.0
2017-Sep-18 17:00N 40°38' W 074°04'0 0.0
2017-Sep-18 16:30N 40°38' W 074°04'0 0.0
2017-Sep-18 16:00N 40°38' W 074°04'0 0.2
2017-Sep-18 15:27N 40°38' W 074°04'0 0.0
2017-Sep-18 14:59N 40°38' W 074°04'0 0.2
2017-Sep-18 14:30N 40°38' W 074°04'0 0.0
2017-Sep-18 13:50N 40°38' W 074°04'0 0.0
2017-Sep-18 13:25N 40°38' W 074°04'0 0.0
2017-Sep-17 15:52N 40°38' W 074°04'0 0.0
2017-Sep-17 15:30N 40°38' W 074°04'0 0.0
2017-Sep-17 15:00N 40°38' W 074°04'0 0.0
2017-Sep-17 14:30N 40°38' W 074°04'0 0.0
2017-Sep-17 14:00N 40°38' W 074°04'0 0.0
2017-Sep-17 13:30N 40°38' W 074°04'0 0.0
2017-Sep-17 13:00N 40°38' W 074°04'0 0.0
2017-Sep-17 12:30N 40°38' W 074°04'  
2017-Sep-14 19:45N 40°38' W 074°04'0 0.2
2017-Sep-14 19:30N 40°38' W 074°04'0 0.0
2017-Sep-14 19:00N 40°38' W 074°04'0 0.2
2017-Sep-14 18:30N 40°38' W 074°04'0 0.3
2017-Sep-14 17:59N 40°38' W 074°04'3 6.9
2017-Sep-14 17:30N 40°40' W 074°02'3 5.1
2017-Sep-14 17:00N 40°42' W 073°59'2 4.4
2017-Sep-14 16:30N 40°44' W 073°58'0 0.7
2017-Sep-14 16:00N 40°44' W 073°57'0 0.0
2017-Sep-14 15:29N 40°44' W 073°57'0 0.0
2017-Sep-14 15:00N 40°44' W 073°57'0 0.0
2017-Sep-14 14:30N 40°44' W 073°57'0 0.1
2017-Sep-14 13:46N 40°44' W 073°57'0 0.1
2017-Sep-14 13:30N 40°44' W 073°57'2 4.3
2017-Sep-14 13:00N 40°43' W 073°59'2 4.4
2017-Sep-14 12:30N 40°41' W 074°01'3 5.3
2017-Sep-14 12:00N 40°39' W 074°03'1 0.1
2017-Sep-13 19:08N 40°38' W 074°04'0 2.3
2017-Sep-13 19:00N 40°38' W 074°04'1 2.8
2017-Sep-13 18:30N 40°39' W 074°03'3 6.0
2017-Sep-13 18:00N 40°41' W 074°01'2 4.3
2017-Sep-13 17:30N 40°43' W 073°59'2 3.9
2017-Sep-13 16:59N 40°44' W 073°57'0 0.0
2017-Sep-13 16:29N 40°44' W 073°57'0 0.0
2017-Sep-13 15:29N 40°44' W 073°57'0 0.0
2017-Sep-13 15:00N 40°44' W 073°57'0 0.0
2017-Sep-13 14:29N 40°44' W 073°57'0 0.0
2017-Sep-13 14:00N 40°44' W 073°57'0 0.1
2017-Sep-13 13:30N 40°44' W 073°57'2 4.6
2017-Sep-13 13:00N 40°42' W 073°59'2 4.5
2017-Sep-13 12:30N 40°41' W 074°01'2 4.9
2017-Sep-13 12:00N 40°39' W 074°03'1 2.3
2017-Sep-13 11:30N 40°38' W 074°04'0 0.0
2017-Sep-12 20:37N 40°38' W 074°04'0 0.4
2017-Sep-12 20:30N 40°38' W 074°04'0 0.4
2017-Sep-12 20:00N 40°38' W 074°04'2 3.2
2017-Sep-12 19:30N 40°40' W 074°03'2 3.9
2017-Sep-12 19:00N 40°42' W 074°03'0 0.0
2017-Sep-12 18:30N 40°42' W 074°03'0 0.0
2017-Sep-12 18:00N 40°42' W 074°03'0 0.0
2017-Sep-12 17:30N 40°42' W 074°03'0 0.0
2017-Sep-12 17:00N 40°42' W 074°03'0 0.0
2017-Sep-12 16:30N 40°42' W 074°03'0 0.5
2017-Sep-12 16:00N 40°42' W 074°02'0 0.4
2017-Sep-12 15:30N 40°42' W 074°02'0 0.1
2017-Sep-12 15:00N 40°42' W 074°02'0 0.6
2017-Sep-12 14:30N 40°41' W 074°02'3 6.2
2017-Sep-12 14:00N 40°39' W 074°04'0 0.9
2017-Sep-12 13:30N 40°38' W 074°04'0 0.0
2017-Sep-12 13:00N 40°38' W 074°04'0 0.0
2017-Sep-12 12:30N 40°38' W 074°04'0 0.0
2017-Sep-12 12:00N 40°38' W 074°04'0 0.0
2017-Sep-12 11:30N 40°38' W 074°04'0 0.5
2017-Sep-12 11:00N 40°38' W 074°04'3 6.2
2017-Sep-12 10:30N 40°40' W 074°02'1 2.9
2017-Sep-12 10:00N 40°42' W 074°01'3 5.3
2017-Sep-12 09:30N 40°39' W 074°03'2 3.9
2017-Sep-12 09:00N 40°38' W 074°04'0 0.0
2017-Sep-11 20:03N 40°38' W 074°04'0 0.0
2017-Sep-11 20:00N 40°38' W 074°04'0 0.0
2017-Sep-11 19:30N 40°38' W 074°04'0 0.0
2017-Sep-11 19:01N 40°38' W 074°04'0 0.0
2017-Sep-11 18:30N 40°38' W 074°04'0 0.0
2017-Sep-11 18:00N 40°38' W 074°04'0 0.0
2017-Sep-11 17:30N 40°38' W 074°04'0 0.0
2017-Sep-11 17:01N 40°38' W 074°04'0 0.0
2017-Sep-11 16:31N 40°38' W 074°04'0 0.0
2017-Sep-11 16:01N 40°38' W 074°04'0 0.0
2017-Sep-11 15:30N 40°38' W 074°04'0 0.0
2017-Sep-11 15:00N 40°38' W 074°04'0 0.0
2017-Sep-11 14:30N 40°38' W 074°04'0 0.0
2017-Sep-11 14:00N 40°38' W 074°04'0 0.5
2017-Sep-11 13:30N 40°38' W 074°04'0 0.3
2017-Sep-11 13:00N 40°38' W 074°04'0 0.0
2017-Sep-11 12:30N 40°38' W 074°04'0 0.3
2017-Sep-11 12:00N 40°38' W 074°04'0 0.4
2017-Sep-11 11:30N 40°38' W 074°04'0 0.6
2017-Sep-11 11:01N 40°38' W 074°04'2 4.1
2017-Sep-11 10:30N 40°40' W 074°03'3 5.7
2017-Sep-11 10:01N 40°42' W 074°01'2 5.0
2017-Sep-11 09:30N 40°40' W 074°02'2 4.3
2017-Sep-11 09:00N 40°38' W 074°04'  

Dump ship's entire track history